createdAt,value
2023-11-10T00:00:13.511Z,7.60
2023-11-10T00:02:42.160Z,7.60
2023-11-10T00:05:10.623Z,7.60
2023-11-10T00:07:39.644Z,7.70
2023-11-10T00:10:08.711Z,7.70
2023-11-10T00:12:35.995Z,7.70
2023-11-10T00:15:02.950Z,7.70
2023-11-10T00:17:29.825Z,7.70
2023-11-10T00:19:56.728Z,7.70
2023-11-10T00:22:23.568Z,7.60
2023-11-10T00:24:50.426Z,7.60
2023-11-10T00:27:18.021Z,7.60
2023-11-10T00:29:45.990Z,7.60
2023-11-10T00:32:14.284Z,7.70
2023-11-10T00:34:42.131Z,7.70
2023-11-10T00:37:10.075Z,7.70
2023-11-10T00:39:37.656Z,7.70
2023-11-10T00:42:04.763Z,7.70
2023-11-10T00:44:31.651Z,7.70
2023-11-10T00:46:59.123Z,7.70
2023-11-10T00:49:26.149Z,7.70
2023-11-10T00:51:53.073Z,7.70
2023-11-10T00:54:20.078Z,7.70
2023-11-10T00:56:46.927Z,7.70
2023-11-10T00:59:13.841Z,7.70
2023-11-10T01:01:41.146Z,7.70
2023-11-10T01:04:09.174Z,7.70
2023-11-10T01:06:36.607Z,7.70
2023-11-10T01:09:03.605Z,7.70
2023-11-10T01:11:30.559Z,7.70
2023-11-10T01:13:57.587Z,7.70
2023-11-10T01:16:25.303Z,7.70
2023-11-10T01:18:52.380Z,7.70
2023-11-10T01:21:20.178Z,7.80
2023-11-10T01:23:47.372Z,7.80
2023-11-10T01:26:14.689Z,7.80
2023-11-10T01:28:41.620Z,7.80
2023-11-10T01:31:10.213Z,7.70
2023-11-10T01:33:37.487Z,7.70
2023-11-10T01:36:05.236Z,7.70
2023-11-10T01:38:32.272Z,7.70
2023-11-10T01:40:59.627Z,7.70
2023-11-10T01:43:26.581Z,7.70
2023-11-10T01:45:54.356Z,7.70
2023-11-10T01:48:21.665Z,7.70
2023-11-10T01:50:48.694Z,7.70
2023-11-10T01:53:16.172Z,7.80
2023-11-10T01:55:44.836Z,7.80
2023-11-10T01:58:13.082Z,7.80
2023-11-10T02:00:40.740Z,7.80
2023-11-10T02:03:09.470Z,7.70
2023-11-10T02:05:37.637Z,7.70
2023-11-10T02:08:05.930Z,7.70
2023-11-10T02:10:33.615Z,7.70
2023-11-10T02:13:03.272Z,7.70
2023-11-10T02:15:30.317Z,7.60
2023-11-10T02:17:57.373Z,7.60
2023-11-10T02:20:24.624Z,7.70
2023-11-10T02:22:52.122Z,7.60
2023-11-10T02:25:21.105Z,7.70
2023-11-10T02:27:48.792Z,7.60
2023-11-10T02:30:16.351Z,7.70
2023-11-10T02:32:45.013Z,7.60
2023-11-10T02:35:12.519Z,7.70
2023-11-10T02:37:39.530Z,7.70
2023-11-10T02:40:07.567Z,7.70
2023-11-10T02:42:38.197Z,7.70
2023-11-10T02:45:07.102Z,7.70
2023-11-10T02:47:35.277Z,7.70
2023-11-10T02:50:02.331Z,7.70
2023-11-10T02:52:29.266Z,7.60
2023-11-10T02:54:56.164Z,7.60
2023-11-10T02:57:24.406Z,7.60
2023-11-10T02:59:51.456Z,7.60
2023-11-10T03:02:18.539Z,7.60
2023-11-10T03:04:46.532Z,7.60
2023-11-10T03:07:13.774Z,7.60
2023-11-10T03:09:43.900Z,7.60
2023-11-10T03:12:11.140Z,7.60
2023-11-10T03:14:38.322Z,7.60
2023-11-10T03:17:07.349Z,7.60
2023-11-10T03:19:34.847Z,7.60
2023-11-10T03:22:02.253Z,7.50
2023-11-10T03:24:29.300Z,7.50
2023-11-10T03:26:56.217Z,7.40
2023-11-10T03:29:23.267Z,7.40
2023-11-10T03:31:50.350Z,7.40
2023-11-10T03:34:17.651Z,7.30
2023-11-10T03:36:45.075Z,7.30
2023-11-10T03:39:12.207Z,7.30
2023-11-10T03:41:39.513Z,7.30
2023-11-10T03:44:06.572Z,7.40
2023-11-10T03:46:33.768Z,7.40
2023-11-10T03:49:00.876Z,7.40
2023-11-10T03:51:27.862Z,7.50
2023-11-10T03:53:54.720Z,7.50
2023-11-10T03:56:21.783Z,7.50
2023-11-10T03:58:49.527Z,7.50
2023-11-10T04:01:16.638Z,7.60
2023-11-10T04:03:44.451Z,7.60
2023-11-10T04:06:12.256Z,7.60
2023-11-10T04:08:39.393Z,7.60
2023-11-10T04:11:06.246Z,7.60
2023-11-10T04:13:34.278Z,7.60
2023-11-10T04:16:01.453Z,7.60
2023-11-10T04:18:29.048Z,7.60
2023-11-10T04:20:57.051Z,7.60
2023-11-10T04:23:24.140Z,7.60
2023-11-10T04:25:51.548Z,7.50
2023-11-10T04:28:18.823Z,7.50
2023-11-10T04:30:46.989Z,7.50
2023-11-10T04:33:14.343Z,7.40
2023-11-10T04:35:41.746Z,7.40
2023-11-10T04:38:10.638Z,7.40
2023-11-10T04:40:37.814Z,7.40
2023-11-10T04:43:07.046Z,7.40
2023-11-10T04:45:35.292Z,7.40
2023-11-10T04:48:02.726Z,7.50
2023-11-10T04:50:29.714Z,7.50
2023-11-10T04:52:56.555Z,7.50
2023-11-10T04:55:24.061Z,7.50
2023-11-10T04:57:51.106Z,7.50
2023-11-10T05:00:18.687Z,7.50
2023-11-10T05:02:46.377Z,7.40
2023-11-10T05:05:14.757Z,7.40
2023-11-10T05:07:42.538Z,7.40
2023-11-10T05:10:10.103Z,7.30
2023-11-10T05:12:37.625Z,7.30
2023-11-10T05:15:06.803Z,7.30
2023-11-10T05:17:40.526Z,7.30
2023-11-10T05:20:11.394Z,7.30
2023-11-10T05:22:40.981Z,7.30
2023-11-10T05:25:14.782Z,7.30
2023-11-10T05:27:41.765Z,7.30
2023-11-10T05:30:10.318Z,7.30
2023-11-10T05:32:37.189Z,7.30
2023-11-10T05:35:05.309Z,7.30
2023-11-10T05:37:32.792Z,7.30
2023-11-10T05:40:00.850Z,7.40
2023-11-10T05:42:27.971Z,7.40
2023-11-10T05:44:55.044Z,7.40
2023-11-10T05:47:21.909Z,7.40
2023-11-10T05:49:48.779Z,7.40
2023-11-10T05:52:15.730Z,7.40
2023-11-10T05:54:42.726Z,7.30
2023-11-10T05:57:09.923Z,7.30
2023-11-10T05:59:38.075Z,7.30
2023-11-10T06:02:05.314Z,7.30
2023-11-10T06:04:35.786Z,7.30
2023-11-10T06:07:04.447Z,7.30
2023-11-10T06:09:34.925Z,7.40
2023-11-10T06:12:02.317Z,7.40
2023-11-10T06:14:30.584Z,7.40
2023-11-10T06:16:57.812Z,7.50
2023-11-10T06:19:24.925Z,7.50
2023-11-10T06:21:52.200Z,7.50
2023-11-10T06:24:21.306Z,7.50
2023-11-10T06:26:48.612Z,7.50
2023-11-10T06:29:15.568Z,7.50
2023-11-10T06:31:42.665Z,7.50
2023-11-10T06:34:09.688Z,7.60
2023-11-10T06:36:36.640Z,7.50
2023-11-10T06:39:04.427Z,7.50
2023-11-10T06:41:32.149Z,7.60
2023-11-10T06:43:59.049Z,7.60
2023-11-10T06:46:28.100Z,7.60
2023-11-10T06:48:57.321Z,7.60
2023-11-10T06:51:24.777Z,7.60
2023-11-10T06:53:51.918Z,7.60
2023-11-10T06:56:19.305Z,7.60
2023-11-10T06:58:46.803Z,7.60
2023-11-10T07:01:13.999Z,7.60
2023-11-10T07:03:42.394Z,7.50
2023-11-10T07:06:10.075Z,7.60
2023-11-10T07:08:37.511Z,7.60
2023-11-10T07:11:04.714Z,7.60
2023-11-10T07:13:32.016Z,7.60
2023-11-10T07:16:00.460Z,7.60
2023-11-10T07:18:28.123Z,7.60
2023-11-10T07:20:56.032Z,7.70
2023-11-10T07:23:23.463Z,7.60
2023-11-10T07:25:52.292Z,7.60
2023-11-10T07:28:19.262Z,7.70
2023-11-10T07:30:46.219Z,7.70
2023-11-10T07:33:13.386Z,7.70
2023-11-10T07:35:40.455Z,7.70
2023-11-10T07:38:07.891Z,7.70
2023-11-10T07:40:34.989Z,7.70
2023-11-10T07:43:02.182Z,7.70
2023-11-10T07:45:30.408Z,7.80
2023-11-10T07:47:57.687Z,7.80
2023-11-10T07:50:25.629Z,7.90
2023-11-10T07:52:53.023Z,7.90
2023-11-10T07:55:20.444Z,7.90
2023-11-10T07:57:49.460Z,7.80
2023-11-10T08:00:20.819Z,7.80
2023-11-10T08:02:53.548Z,7.90
2023-11-10T08:05:23.791Z,7.90
2023-11-10T08:07:53.652Z,8.00
2023-11-10T08:10:21.872Z,8.10
2023-11-10T08:12:49.000Z,8.10
2023-11-10T08:15:16.165Z,8.10
2023-11-10T08:17:43.199Z,8.20
2023-11-10T08:20:11.461Z,8.20
2023-11-10T08:22:38.747Z,8.30
2023-11-10T08:25:07.153Z,8.30
2023-11-10T08:27:34.770Z,8.40
2023-11-10T08:30:02.086Z,8.40
2023-11-10T08:32:29.976Z,8.40
2023-11-10T08:34:58.384Z,8.50
2023-11-10T08:37:25.653Z,8.50
2023-11-10T08:39:52.889Z,8.50
2023-11-10T08:42:19.836Z,8.60
2023-11-10T08:44:48.312Z,8.60
2023-11-10T08:47:15.636Z,8.70
2023-11-10T08:49:46.795Z,8.70
2023-11-10T08:52:15.710Z,8.70
2023-11-10T08:54:42.930Z,8.80
2023-11-10T08:57:09.835Z,8.80
2023-11-10T08:59:36.781Z,9.00
2023-11-10T09:02:04.089Z,9.20
2023-11-10T09:04:31.287Z,9.40
2023-11-10T09:06:58.623Z,9.60
2023-11-10T09:09:25.631Z,9.80
2023-11-10T09:11:52.515Z,9.90
2023-11-10T09:14:19.800Z,10.00
2023-11-10T09:16:47.182Z,9.90
2023-11-10T09:19:14.274Z,10.00
2023-11-10T09:21:41.319Z,10.10
2023-11-10T09:24:08.638Z,10.20
2023-11-10T09:26:37.621Z,10.10
2023-11-10T09:29:04.852Z,10.10
2023-11-10T09:31:32.927Z,10.10
2023-11-10T09:34:01.147Z,10.20
2023-11-10T09:36:29.123Z,10.30
2023-11-10T09:38:56.040Z,10.40
2023-11-10T09:41:27.543Z,10.40
2023-11-10T09:43:55.287Z,10.50
2023-11-10T09:46:23.642Z,10.50
2023-11-10T09:48:52.631Z,10.50
2023-11-10T09:51:21.147Z,10.40
2023-11-10T09:53:50.112Z,10.30
2023-11-10T09:56:18.104Z,10.10
2023-11-10T09:58:46.815Z,10.00
2023-11-10T10:01:13.909Z,10.00
2023-11-10T10:03:40.921Z,10.00
2023-11-10T10:06:12.642Z,10.00
2023-11-10T10:08:43.125Z,10.00
2023-11-10T10:11:10.455Z,10.00
2023-11-10T10:13:41.070Z,10.00
2023-11-10T10:16:10.522Z,9.90
2023-11-10T10:18:42.573Z,9.90
2023-11-10T10:21:10.084Z,9.90
2023-11-10T10:23:37.076Z,9.90
2023-11-10T10:26:10.920Z,9.90
2023-11-10T10:28:39.293Z,9.80
2023-11-10T10:31:07.439Z,9.80
2023-11-10T10:33:35.777Z,9.70
2023-11-10T10:36:04.655Z,9.60
2023-11-10T10:38:34.373Z,9.60
2023-11-10T10:41:05.775Z,9.50
2023-11-10T10:43:43.766Z,9.50
2023-11-10T10:46:21.447Z,9.50
2023-11-10T10:48:53.193Z,9.60
2023-11-10T10:51:22.669Z,9.60
2023-11-10T10:53:51.991Z,9.70
2023-11-10T10:56:33.958Z,9.80
2023-11-10T10:59:07.385Z,9.80
2023-11-10T11:01:35.418Z,9.80
2023-11-10T11:04:31.178Z,9.80
2023-11-10T11:07:12.369Z,9.80
2023-11-10T11:10:07.789Z,9.70
2023-11-10T11:12:37.656Z,9.70
2023-11-10T11:15:07.396Z,9.60
2023-11-10T11:18:11.545Z,9.50
2023-11-10T11:20:39.476Z,9.50
2023-11-10T11:23:09.143Z,9.40
2023-11-10T11:25:38.765Z,9.30
2023-11-10T11:28:05.727Z,9.20
2023-11-10T11:30:41.691Z,9.10
2023-11-10T11:33:12.971Z,9.00
2023-11-10T11:35:48.955Z,8.90
2023-11-10T11:38:28.851Z,8.90
2023-11-10T11:40:59.323Z,8.80
2023-11-10T11:43:26.583Z,8.80
2023-11-10T11:45:57.636Z,8.80
2023-11-10T11:48:24.764Z,8.80
2023-11-10T11:50:55.393Z,8.70
2023-11-10T11:53:26.202Z,8.70
2023-11-10T11:55:54.177Z,8.70
2023-11-10T11:58:21.561Z,8.60
2023-11-10T12:00:49.057Z,8.60
2023-11-10T12:03:16.112Z,8.60
2023-11-10T12:05:45.357Z,8.60
2023-11-10T12:08:13.328Z,8.50
2023-11-10T12:10:40.823Z,8.50
2023-11-10T12:13:08.359Z,8.40
2023-11-10T12:15:35.942Z,8.30
2023-11-10T12:18:03.031Z,8.20
2023-11-10T12:20:31.810Z,8.10
2023-11-10T12:22:58.981Z,8.10
2023-11-10T12:25:30.656Z,8.10
2023-11-10T12:27:57.851Z,8.00
2023-11-10T12:30:25.253Z,8.10
2023-11-10T12:32:53.776Z,8.00
2023-11-10T12:35:22.122Z,8.00
2023-11-10T12:37:53.249Z,8.00
2023-11-10T12:40:20.853Z,7.90
2023-11-10T12:42:50.622Z,7.90
2023-11-10T12:45:18.251Z,7.90
2023-11-10T12:47:56.646Z,7.90
2023-11-10T12:50:31.273Z,7.90
2023-11-10T12:52:58.906Z,7.90
2023-11-10T12:55:25.963Z,7.90
2023-11-10T12:57:53.562Z,7.90
2023-11-10T13:00:20.747Z,7.90
2023-11-10T13:02:47.797Z,8.00
2023-11-10T13:05:21.195Z,8.00
2023-11-10T13:07:48.177Z,8.00
2023-11-10T13:10:16.233Z,8.00
2023-11-10T13:12:43.417Z,8.00
2023-11-10T13:15:10.765Z,8.00
2023-11-10T13:17:40.528Z,8.00
2023-11-10T13:20:11.821Z,8.00
2023-11-10T13:22:38.778Z,8.00
2023-11-10T13:25:07.095Z,8.00
2023-11-10T13:27:34.078Z,8.00
2023-11-10T13:30:00.988Z,8.00
2023-11-10T13:32:29.894Z,8.00
2023-11-10T13:34:59.652Z,8.00
2023-11-10T13:37:27.834Z,8.00
2023-11-10T13:39:54.831Z,8.00
2023-11-10T13:42:22.063Z,8.00
2023-11-10T13:44:49.909Z,8.00
2023-11-10T13:47:16.956Z,7.90
2023-11-10T13:49:44.270Z,7.90
2023-11-10T13:52:12.334Z,7.90
2023-11-10T13:54:39.364Z,7.90
2023-11-10T13:57:06.790Z,7.90
2023-11-10T13:59:38.672Z,7.80
2023-11-10T14:02:05.715Z,7.80
2023-11-10T14:04:32.711Z,7.80
2023-11-10T14:06:59.828Z,7.80
2023-11-10T14:09:26.712Z,7.80
2023-11-10T14:11:53.677Z,7.80
2023-11-10T14:14:20.510Z,7.70
2023-11-10T14:16:48.168Z,7.80
2023-11-10T14:19:15.292Z,7.70
2023-11-10T14:21:42.270Z,7.70
2023-11-10T14:24:10.043Z,7.70
2023-11-10T14:26:37.302Z,7.70
2023-11-10T14:29:04.381Z,7.70
2023-11-10T14:31:33.378Z,7.70
2023-11-10T14:34:01.430Z,7.70
2023-11-10T14:36:29.683Z,7.70
2023-11-10T14:38:57.070Z,7.70
2023-11-10T14:41:25.304Z,7.70
2023-11-10T14:43:52.938Z,7.70
2023-11-10T14:46:21.564Z,7.70
2023-11-10T14:48:51.094Z,7.70
2023-11-10T14:51:24.576Z,7.70
2023-11-10T14:53:51.810Z,7.70
2023-11-10T14:56:19.310Z,7.70
2023-11-10T14:58:49.795Z,7.70
2023-11-10T15:01:17.196Z,7.70
2023-11-10T15:03:48.588Z,7.70
2023-11-10T15:06:17.713Z,7.70
2023-11-10T15:08:45.211Z,7.70
2023-11-10T15:11:14.251Z,7.70
2023-11-10T15:13:41.379Z,7.70
2023-11-10T15:16:10.110Z,7.60
2023-11-10T15:18:37.449Z,7.60
2023-11-10T15:21:04.622Z,7.70
2023-11-10T15:23:31.567Z,7.70
2023-11-10T15:26:00.087Z,7.70
2023-11-10T15:28:28.321Z,7.70
2023-11-10T15:30:55.662Z,7.60
2023-11-10T15:33:22.690Z,7.70
2023-11-10T15:35:51.715Z,7.60
2023-11-10T15:38:20.123Z,7.60
2023-11-10T15:40:48.367Z,7.60
2023-11-10T15:43:15.422Z,7.60
2023-11-10T15:45:42.484Z,7.60
2023-11-10T15:48:16.054Z,7.60
2023-11-10T15:50:43.777Z,7.60
2023-11-10T15:53:11.123Z,7.60
2023-11-10T15:55:38.034Z,7.50
2023-11-10T15:58:06.702Z,7.50
2023-11-10T16:00:34.389Z,7.60
2023-11-10T16:03:01.727Z,7.60
2023-11-10T16:05:29.198Z,7.60
2023-11-10T16:07:56.276Z,7.60
2023-11-10T16:10:24.934Z,7.60
2023-11-10T16:12:53.340Z,7.60
2023-11-10T16:15:20.562Z,7.60
2023-11-10T16:17:48.537Z,7.50
2023-11-10T16:20:15.634Z,7.60
2023-11-10T16:22:44.116Z,7.60
2023-11-10T16:25:11.355Z,7.60
2023-11-10T16:27:38.447Z,7.60
2023-11-10T16:30:05.881Z,7.60
2023-11-10T16:32:34.524Z,7.60
2023-11-10T16:35:07.389Z,7.60
2023-11-10T16:37:35.799Z,7.60
2023-11-10T16:40:02.720Z,7.60
2023-11-10T16:42:29.722Z,7.60
2023-11-10T16:44:57.968Z,7.60
2023-11-10T16:47:25.210Z,7.60
2023-11-10T16:49:52.472Z,7.60
2023-11-10T16:52:19.811Z,7.60
2023-11-10T16:54:46.762Z,7.60
2023-11-10T16:57:13.647Z,7.60
2023-11-10T16:59:40.636Z,7.60
2023-11-10T17:02:07.867Z,7.60
2023-11-10T17:04:37.485Z,7.60
2023-11-10T17:07:04.449Z,7.70
2023-11-10T17:09:31.491Z,7.70
2023-11-10T17:11:59.261Z,7.70
2023-11-10T17:14:28.898Z,7.70
2023-11-10T17:16:56.002Z,7.70
2023-11-10T17:19:23.092Z,7.70
2023-11-10T17:21:50.104Z,7.70
2023-11-10T17:24:17.386Z,7.70
2023-11-10T17:26:44.400Z,7.70
2023-11-10T17:29:11.274Z,7.70
2023-11-10T17:31:38.163Z,7.70
2023-11-10T17:34:06.607Z,7.70
2023-11-10T17:36:33.752Z,7.70
2023-11-10T17:39:01.741Z,7.70
2023-11-10T17:41:28.652Z,7.70
2023-11-10T17:43:58.039Z,7.70
2023-11-10T17:46:25.215Z,7.70
2023-11-10T17:48:52.724Z,7.70
2023-11-10T17:51:23.380Z,7.70
2023-11-10T17:53:50.539Z,7.70
2023-11-10T17:56:17.453Z,7.70
2023-11-10T17:58:44.313Z,7.70
2023-11-10T18:01:11.289Z,7.70
2023-11-10T18:03:38.397Z,7.70
2023-11-10T18:06:06.057Z,7.70
2023-11-10T18:08:34.643Z,7.70
2023-11-10T18:11:01.789Z,7.70
2023-11-10T18:13:28.795Z,7.70
2023-11-10T18:15:55.678Z,7.70
2023-11-10T18:18:22.569Z,7.80
2023-11-10T18:20:49.575Z,7.80
2023-11-10T18:23:16.582Z,7.80
2023-11-10T18:25:43.462Z,7.80
2023-11-10T18:28:10.508Z,7.80
2023-11-10T18:30:37.489Z,7.80
2023-11-10T18:33:04.475Z,7.80
2023-11-10T18:35:31.383Z,7.80
2023-11-10T18:37:58.286Z,7.80
2023-11-10T18:40:25.241Z,7.80
2023-11-10T18:42:54.407Z,7.80
2023-11-10T18:45:21.299Z,7.80
2023-11-10T18:47:48.198Z,7.80
2023-11-10T18:50:15.369Z,7.70
2023-11-10T18:52:42.951Z,7.70
2023-11-10T18:55:11.848Z,7.70
2023-11-10T18:57:39.091Z,7.70
2023-11-10T19:00:10.327Z,7.80
2023-11-10T19:02:37.760Z,7.80
2023-11-10T19:05:05.342Z,7.80
2023-11-10T19:07:35.692Z,7.80
2023-11-10T19:10:05.033Z,7.80
2023-11-10T19:12:32.025Z,7.80
2023-11-10T19:14:58.972Z,7.80
2023-11-10T19:17:25.789Z,7.80
2023-11-10T19:19:53.020Z,7.80
2023-11-10T19:22:20.353Z,7.80
2023-11-10T19:24:47.284Z,7.80
2023-11-10T19:27:19.950Z,7.80
2023-11-10T19:29:47.096Z,7.80
2023-11-10T19:32:13.996Z,7.80
2023-11-10T19:34:44.885Z,7.80
2023-11-10T19:37:12.399Z,7.80
2023-11-10T19:39:39.403Z,7.80
2023-11-10T19:42:07.400Z,7.80
2023-11-10T19:44:34.327Z,7.80
2023-11-10T19:47:01.312Z,7.80
2023-11-10T19:49:28.132Z,7.80
2023-11-10T19:56:54.679Z,7.70
2023-11-10T19:59:24.264Z,7.60
2023-11-10T20:01:52.350Z,7.60
2023-11-10T20:04:19.230Z,7.60
2023-11-10T20:06:46.124Z,7.60
2023-11-10T20:09:16.556Z,7.60
2023-11-10T20:11:45.007Z,7.60
2023-11-10T20:14:12.232Z,7.50
2023-11-10T20:16:39.086Z,7.50
2023-11-10T20:19:05.951Z,7.50
2023-11-10T20:21:32.852Z,7.50
2023-11-10T20:23:59.960Z,7.60
2023-11-10T20:26:26.909Z,7.60
2023-11-10T20:28:53.785Z,7.60
2023-11-10T20:31:20.979Z,7.60
2023-11-10T20:33:48.085Z,7.60
2023-11-10T20:36:15.059Z,7.60
2023-11-10T20:38:42.374Z,7.60
2023-11-10T20:41:09.767Z,7.60
2023-11-10T20:43:37.638Z,7.50
2023-11-10T20:46:04.924Z,7.50
2023-11-10T20:48:32.804Z,7.40
2023-11-10T20:51:00.582Z,7.40
2023-11-10T20:53:28.979Z,7.40
2023-11-10T20:55:55.837Z,7.40
2023-11-10T20:58:23.247Z,7.40
2023-11-10T21:00:50.117Z,7.50
2023-11-10T21:03:17.277Z,7.50
2023-11-10T21:05:48.120Z,7.50
2023-11-10T21:08:15.439Z,7.50
2023-11-10T21:10:43.362Z,7.60
2023-11-10T21:13:11.612Z,7.60
2023-11-10T21:15:45.206Z,7.60
2023-11-10T21:18:13.065Z,7.70
2023-11-10T21:20:42.855Z,7.70
2023-11-10T21:23:14.302Z,7.70
2023-11-10T21:25:41.828Z,7.70
2023-11-10T21:28:11.749Z,7.70
2023-11-10T21:30:41.931Z,7.70
2023-11-10T21:33:12.224Z,7.70
2023-11-10T21:35:43.293Z,7.70
2023-11-10T21:38:11.717Z,7.70
2023-11-10T21:40:40.083Z,7.70
2023-11-10T21:43:09.295Z,7.70
2023-11-10T21:45:43.296Z,7.70
2023-11-10T21:48:12.155Z,7.70
2023-11-10T21:50:43.796Z,7.70
2023-11-10T21:53:13.927Z,7.70
2023-11-10T21:55:45.951Z,7.70
2023-11-10T21:58:14.538Z,7.70
2023-11-10T22:00:42.258Z,7.70
2023-11-10T22:03:09.552Z,7.70
2023-11-10T22:05:36.593Z,7.70
2023-11-10T22:08:03.509Z,7.70
2023-11-10T22:10:31.906Z,7.80
2023-11-10T22:12:58.917Z,7.80
2023-11-10T22:15:25.914Z,7.70
2023-11-10T22:17:53.393Z,7.80
2023-11-10T22:20:21.516Z,7.70
2023-11-10T22:22:48.915Z,7.70
2023-11-10T22:25:18.109Z,7.70
2023-11-10T22:27:45.324Z,7.70
2023-11-10T22:30:13.869Z,7.70
2023-11-10T22:32:41.449Z,7.70
2023-11-10T22:35:08.789Z,7.70
2023-11-10T22:37:36.134Z,7.70
2023-11-10T22:40:03.341Z,7.70
2023-11-10T22:42:30.279Z,7.70
2023-11-10T22:44:57.384Z,7.70
2023-11-10T22:47:24.305Z,7.70
2023-11-10T22:49:51.226Z,7.70
2023-11-10T22:52:18.104Z,7.70
2023-11-10T22:54:46.158Z,7.70
2023-11-10T22:57:13.494Z,7.70
2023-11-10T22:59:40.383Z,7.60
2023-11-10T23:02:07.374Z,7.60
2023-11-10T23:04:34.420Z,7.60
2023-11-10T23:07:03.492Z,7.60
2023-11-10T23:09:30.546Z,7.60
2023-11-10T23:11:58.311Z,7.60
2023-11-10T23:14:25.264Z,7.50
2023-11-10T23:16:52.239Z,7.50
2023-11-10T23:19:19.338Z,7.50
2023-11-10T23:21:46.528Z,7.40
2023-11-10T23:24:14.023Z,7.40
2023-11-10T23:26:41.384Z,7.40
2023-11-10T23:29:09.190Z,7.40
2023-11-10T23:31:36.594Z,7.40
2023-11-10T23:34:03.673Z,7.40
2023-11-10T23:36:33.016Z,7.40
2023-11-10T23:39:00.013Z,7.30
2023-11-10T23:41:27.804Z,7.30
2023-11-10T23:43:56.122Z,7.30
2023-11-10T23:46:23.191Z,7.30
2023-11-10T23:48:53.380Z,7.30
2023-11-10T23:51:20.428Z,7.20
2023-11-10T23:53:47.346Z,7.30
2023-11-10T23:56:17.782Z,7.30
2023-11-10T23:58:45.550Z,7.20
